Terminal Aerodrome Forecast
Issued by NWS Boise, ID

Home | Current Version | Previous Version | Text Only | Print | Product List | Glossary On
Versions: 1 2 3 4 5 6 7 8 9 10 11 12 13 14 15 16 17 18 19 20 21 22 23 24 25
000
FTUS45 KBOI 301120
TAFBOI
TAF
KBOI 301120Z 3012/3112 31006KT P6SM VCSH SCT060 BKN100
     FM301500 31012KT P6SM SCT100 BKN200
     FM310300 32013KT P6SM VCSH BKN100 OVC200
     FM310600 31008KT P6SM -SHRA SCT060 OVC100
     FM310900 30005KT P6SM FEW060 BKN100=

USA.gov is the U.S. government's official web portal to all federal, state and local government web resources and services.